Time;durP1;ratioP1;P1;durP2;ratioP2;P2;SDS_P1;SDS_P2;PMS_P1;PMS_P2;Temp;Humidity;BMP_temperature;BMP_pressure;BME280_temperature;BME280_humidity;BME280_pressure;Samples;Min_cycle;Max_cycle;Signal;HPM_P1;HPM_P2
2022/11/14 00:00:29;;;;;;;;;;;23.70;36.50;;;;;;484278;246;1073;-74
2022/11/14 00:02:30;;;;;;;;;;;23.70;36.50;;;;;;484195;246;1146;-74
2022/11/14 00:04:31;;;;;;;;;;;23.80;36.60;;;;;;484233;246;1209;-74
2022/11/14 00:06:32;;;;;;;;;;;23.80;36.50;;;;;;484149;246;1164;-74
2022/11/14 00:08:34;;;;;;;;;;;23.80;36.70;;;;;;484147;246;1191;-74
2022/11/14 00:10:35;;;;;;;;;;;23.80;36.40;;;;;;484145;246;1193;-74
2022/11/14 00:12:36;;;;;;;;;;;23.70;36.30;;;;;;484141;246;2160;-74
2022/11/14 00:14:38;;;;;;;;;;;23.70;36.50;;;;;;484138;246;1189;-74
2022/11/14 00:16:39;;;;;;;;;;;23.60;36.60;;;;;;484167;242;1212;-74
2022/11/14 00:18:40;;;;;;;;;;;23.60;36.80;;;;;;484208;246;1237;-74
2022/11/14 00:20:42;;;;;;;;;;;23.60;37.00;;;;;;484155;246;1262;-74
2022/11/14 00:22:43;;;;;;;;;;;23.60;37.00;;;;;;484152;246;1182;-74
2022/11/14 00:24:44;;;;;;;;;;;23.70;37.10;;;;;;484110;246;1263;-74
2022/11/14 00:26:46;;;;;;;;;;;23.60;37.00;;;;;;484206;246;1250;-74
2022/11/14 00:28:47;;;;;;;;;;;23.70;36.70;;;;;;484230;246;1194;-74
2022/11/14 00:30:48;;;;;;;;;;;23.70;36.50;;;;;;484185;246;1192;-74
2022/11/14 00:32:50;;;;;;;;;;;23.70;36.90;;;;;;484162;246;2160;-74
2022/11/14 00:34:51;;;;;;;;;;;23.80;37.00;;;;;;484241;246;1183;-74
2022/11/14 00:36:52;;;;;;;;;;;23.80;36.60;;;;;;484197;246;1373;-74
2022/11/14 00:38:54;;;;;;;;;;;23.80;36.50;;;;;;484251;246;1257;-74
2022/11/14 00:40:55;;;;;;;;;;;23.90;36.70;;;;;;484238;246;1316;-74
2022/11/14 00:42:57;;;;;;;;;;;23.80;36.80;;;;;;484237;246;1131;-73
2022/11/14 00:44:58;;;;;;;;;;;23.80;36.90;;;;;;484180;246;1168;-74
2022/11/14 00:46:59;;;;;;;;;;;23.90;36.60;;;;;;484199;246;1214;-74
2022/11/14 00:49:01;;;;;;;;;;;23.80;36.50;;;;;;484196;246;1244;-74
2022/11/14 00:51:02;;;;;;;;;;;23.80;37.00;;;;;;484184;246;1200;-74
2022/11/14 00:53:03;;;;;;;;;;;23.80;36.60;;;;;;484237;246;2192;-74
2022/11/14 00:55:05;;;;;;;;;;;23.80;36.50;;;;;;484174;246;1208;-74
2022/11/14 00:57:06;;;;;;;;;;;23.80;36.60;;;;;;484208;246;1207;-74
2022/11/14 00:59:07;;;;;;;;;;;23.80;36.60;;;;;;484147;246;1324;-74
2022/11/14 01:01:09;;;;;;;;;;;23.90;36.50;;;;;;484101;246;1201;-74
2022/11/14 01:03:10;;;;;;;;;;;23.90;36.40;;;;;;484170;246;1315;-74
2022/11/14 01:05:11;;;;;;;;;;;23.90;36.40;;;;;;484144;246;1150;-74
2022/11/14 01:07:13;;;;;;;;;;;23.90;36.90;;;;;;484054;246;1294;-74
2022/11/14 01:09:14;;;;;;;;;;;24.00;36.50;;;;;;484108;246;1129;-74
2022/11/14 01:11:15;;;;;;;;;;;24.10;36.30;;;;;;484153;246;1312;-75
2022/11/14 01:13:17;;;;;;;;;;;24.00;36.20;;;;;;484063;246;2141;-74
2022/11/14 01:15:18;;;;;;;;;;;24.00;36.30;;;;;;484091;246;1233;-74
2022/11/14 01:17:19;;;;;;;;;;;23.90;36.20;;;;;;484186;246;1272;-74
2022/11/14 01:19:21;;;;;;;;;;;23.90;36.30;;;;;;484128;246;1185;-74
2022/11/14 01:21:22;;;;;;;;;;;23.90;36.30;;;;;;484171;246;1241;-74
2022/11/14 01:23:23;;;;;;;;;;;23.90;36.40;;;;;;484211;246;1277;-74
2022/11/14 01:25:25;;;;;;;;;;;23.90;36.50;;;;;;484221;246;1159;-74
2022/11/14 01:27:26;;;;;;;;;;;23.70;36.50;;;;;;484203;246;1158;-74
2022/11/14 01:29:27;;;;;;;;;;;23.70;36.40;;;;;;484213;246;1239;-74
2022/11/14 01:31:29;;;;;;;;;;;23.70;36.40;;;;;;484312;246;1141;-74
2022/11/14 01:33:30;;;;;;;;;;;23.60;36.40;;;;;;484254;246;2188;-74
2022/11/14 01:35:31;;;;;;;;;;;23.50;36.40;;;;;;484213;246;1296;-74
2022/11/14 01:37:33;;;;;;;;;;;23.50;36.70;;;;;;484174;246;1124;-74
2022/11/14 01:39:34;;;;;;;;;;;23.50;36.70;;;;;;484172;246;1124;-74
2022/11/14 01:41:35;;;;;;;;;;;23.50;36.60;;;;;;484209;246;1176;-74
2022/11/14 01:43:37;;;;;;;;;;;23.40;37.00;;;;;;484156;242;1506;-74
2022/11/14 01:45:38;;;;;;;;;;;23.40;36.60;;;;;;484185;246;1176;-74
2022/11/14 01:47:39;;;;;;;;;;;23.40;36.60;;;;;;484252;246;1239;-74
2022/11/14 01:49:41;;;;;;;;;;;23.50;37.20;;;;;;484204;246;1305;-74
2022/11/14 01:51:42;;;;;;;;;;;23.50;36.50;;;;;;484174;246;1174;-74
2022/11/14 01:53:43;;;;;;;;;;;23.50;36.60;;;;;;484158;246;2196;-74
2022/11/14 01:55:45;;;;;;;;;;;23.50;36.70;;;;;;484175;246;1146;-74
2022/11/14 01:57:46;;;;;;;;;;;23.50;37.00;;;;;;484190;246;1172;-74
2022/11/14 01:59:47;;;;;;;;;;;23.50;37.10;;;;;;484160;246;1157;-74
2022/11/14 02:01:49;;;;;;;;;;;23.50;37.10;;;;;;484145;246;1167;-74
2022/11/14 02:03:50;;;;;;;;;;;23.50;36.70;;;;;;484224;246;1195;-74
2022/11/14 02:05:51;;;;;;;;;;;23.50;36.80;;;;;;484167;246;1172;-74
2022/11/14 02:07:53;;;;;;;;;;;23.50;37.00;;;;;;484184;246;1245;-74
2022/11/14 02:09:54;;;;;;;;;;;23.50;37.50;;;;;;484146;246;1310;-74
2022/11/14 02:11:55;;;;;;;;;;;23.60;37.00;;;;;;484265;246;1140;-74
2022/11/14 02:13:57;;;;;;;;;;;23.50;36.90;;;;;;484088;246;2184;-74
2022/11/14 02:15:58;;;;;;;;;;;23.60;37.30;;;;;;484133;246;1405;-74
2022/11/14 02:17:59;;;;;;;;;;;23.70;37.10;;;;;;484190;246;1241;-74
2022/11/14 02:20:01;;;;;;;;;;;23.70;37.40;;;;;;484115;246;1114;-74
2022/11/14 02:22:02;;;;;;;;;;;23.70;37.20;;;;;;484165;246;1321;-74
2022/11/14 02:24:03;;;;;;;;;;;23.70;36.90;;;;;;484105;246;1198;-74
2022/11/14 02:26:05;;;;;;;;;;;23.70;37.20;;;;;;484167;246;1199;-74
2022/11/14 02:28:06;;;;;;;;;;;23.70;37.30;;;;;;484206;246;1316;-74
2022/11/14 02:30:07;;;;;;;;;;;23.60;37.30;;;;;;484106;246;1146;-74
2022/11/14 02:32:09;;;;;;;;;;;23.60;37.20;;;;;;484170;246;1270;-74
2022/11/14 02:34:10;;;;;;;;;;;23.60;37.20;;;;;;484222;246;2152;-74
2022/11/14 02:36:11;;;;;;;;;;;23.60;37.20;;;;;;484177;246;1164;-74
2022/11/14 02:38:13;;;;;;;;;;;23.70;37.10;;;;;;484307;246;1432;-74
2022/11/14 02:40:14;;;;;;;;;;;23.70;37.30;;;;;;484186;246;1172;-74
2022/11/14 02:42:15;;;;;;;;;;;23.70;37.50;;;;;;484177;246;1194;-74
2022/11/14 02:44:16;;;;;;;;;;;23.70;37.10;;;;;;484142;246;1222;-74
2022/11/14 02:46:18;;;;;;;;;;;23.70;37.00;;;;;;484215;246;1176;-74
2022/11/14 02:48:19;;;;;;;;;;;23.80;37.40;;;;;;484274;246;1270;-74
2022/11/14 02:50:21;;;;;;;;;;;23.80;37.30;;;;;;484161;246;1170;-74
2022/11/14 02:52:22;;;;;;;;;;;23.80;37.10;;;;;;484174;246;1160;-74
2022/11/14 02:54:23;;;;;;;;;;;23.90;37.50;;;;;;484154;246;2184;-74
2022/11/14 02:56:24;;;;;;;;;;;23.80;37.10;;;;;;484143;246;1302;-75
2022/11/14 02:58:26;;;;;;;;;;;23.90;37.00;;;;;;484147;246;1161;-74
2022/11/14 03:00:27;;;;;;;;;;;23.90;37.00;;;;;;484179;246;1182;-74
2022/11/14 03:02:28;;;;;;;;;;;23.90;37.30;;;;;;484189;246;1154;-74
2022/11/14 03:04:30;;;;;;;;;;;24.00;36.80;;;;;;484129;246;1273;-74
2022/11/14 03:06:31;;;;;;;;;;;24.00;36.70;;;;;;484169;246;1240;-74
2022/11/14 03:08:32;;;;;;;;;;;24.00;36.90;;;;;;484121;246;1181;-74
2022/11/14 03:10:34;;;;;;;;;;;24.10;37.00;;;;;;484149;246;1256;-74
2022/11/14 03:12:35;;;;;;;;;;;24.10;36.70;;;;;;484197;246;1234;-74
2022/11/14 03:14:36;;;;;;;;;;;24.10;36.50;;;;;;484074;246;2187;-74
2022/11/14 03:16:38;;;;;;;;;;;24.10;36.50;;;;;;484100;246;1179;-74
2022/11/14 03:18:39;;;;;;;;;;;24.10;36.50;;;;;;484066;246;1214;-74
2022/11/14 03:20:40;;;;;;;;;;;24.00;36.60;;;;;;484115;246;1182;-74
2022/11/14 03:22:42;;;;;;;;;;;24.00;36.60;;;;;;484161;246;1229;-74
2022/11/14 03:24:43;;;;;;;;;;;24.00;37.00;;;;;;484151;246;1133;-74
2022/11/14 03:26:44;;;;;;;;;;;23.90;36.60;;;;;;484212;246;1183;-74
2022/11/14 03:28:46;;;;;;;;;;;23.80;36.60;;;;;;484143;246;1237;-74
2022/11/14 03:30:47;;;;;;;;;;;23.70;36.60;;;;;;484195;246;1216;-74
2022/11/14 03:32:49;;;;;;;;;;;23.70;36.60;;;;;;484160;246;1307;-74
2022/11/14 03:34:50;;;;;;;;;;;23.70;36.60;;;;;;484159;246;2160;-74
2022/11/14 03:36:51;;;;;;;;;;;23.70;36.60;;;;;;484164;246;1283;-74
2022/11/14 03:38:52;;;;;;;;;;;23.40;36.80;;;;;;484239;246;1205;-74
2022/11/14 03:40:54;;;;;;;;;;;23.40;36.90;;;;;;484193;246;1266;-74
2022/11/14 03:42:55;;;;;;;;;;;23.40;36.90;;;;;;484139;246;1166;-74
2022/11/14 03:44:56;;;;;;;;;;;23.30;36.80;;;;;;484154;246;1188;-74
2022/11/14 03:46:58;;;;;;;;;;;23.30;36.90;;;;;;484173;246;1216;-74
2022/11/14 03:48:59;;;;;;;;;;;23.30;36.90;;;;;;484113;246;1242;-74
2022/11/14 03:51:00;;;;;;;;;;;23.40;36.70;;;;;;484149;246;1227;-74
2022/11/14 03:53:02;;;;;;;;;;;23.40;36.70;;;;;;484180;246;1179;-74
2022/11/14 03:55:03;;;;;;;;;;;23.30;36.70;;;;;;484166;246;2192;-74
2022/11/14 03:57:04;;;;;;;;;;;23.40;36.60;;;;;;484183;246;1202;-74
2022/11/14 03:59:06;;;;;;;;;;;23.40;36.60;;;;;;484089;246;1309;-74
2022/11/14 04:01:07;;;;;;;;;;;23.40;36.60;;;;;;484114;246;1271;-74
2022/11/14 04:03:09;;;;;;;;;;;23.40;36.50;;;;;;484195;246;1215;-74
2022/11/14 04:05:10;;;;;;;;;;;23.50;36.80;;;;;;484172;246;1188;-74
2022/11/14 04:07:11;;;;;;;;;;;23.50;37.10;;;;;;484167;246;1250;-74
2022/11/14 04:09:12;;;;;;;;;;;23.50;36.90;;;;;;484237;243;1262;-74
2022/11/14 04:11:14;;;;;;;;;;;23.50;36.90;;;;;;484231;246;1174;-74
2022/11/14 04:13:15;;;;;;;;;;;23.60;36.70;;;;;;484118;246;1166;-74
2022/11/14 04:15:16;;;;;;;;;;;23.60;36.60;;;;;;484139;246;2183;-74
2022/11/14 04:17:18;;;;;;;;;;;23.60;36.70;;;;;;484206;246;1224;-74
2022/11/14 04:19:19;;;;;;;;;;;23.60;37.10;;;;;;484186;246;1236;-74
2022/11/14 04:21:20;;;;;;;;;;;23.70;36.70;;;;;;484134;246;1258;-74
2022/11/14 04:23:22;;;;;;;;;;;23.60;36.60;;;;;;484141;246;1240;-74
2022/11/14 04:25:23;;;;;;;;;;;23.60;36.70;;;;;;484219;246;1187;-75
2022/11/14 04:27:24;;;;;;;;;;;23.60;37.00;;;;;;484306;246;1224;-74
2022/11/14 04:29:26;;;;;;;;;;;23.60;37.00;;;;;;484229;246;1224;-74
2022/11/14 04:31:27;;;;;;;;;;;23.60;36.70;;;;;;484227;246;1231;-74
2022/11/14 04:33:28;;;;;;;;;;;23.60;37.00;;;;;;484263;246;1149;-74
2022/11/14 04:35:30;;;;;;;;;;;23.60;36.70;;;;;;484231;246;2187;-74
2022/11/14 04:37:31;;;;;;;;;;;23.60;36.70;;;;;;484275;246;1268;-74
2022/11/14 04:39:32;;;;;;;;;;;23.70;36.60;;;;;;484193;246;1087;-74
2022/11/14 04:41:34;;;;;;;;;;;23.60;36.60;;;;;;484174;246;1228;-74
2022/11/14 04:43:35;;;;;;;;;;;23.50;37.20;;;;;;484156;246;1270;-74
2022/11/14 04:45:36;;;;;;;;;;;23.40;37.40;;;;;;484157;246;1121;-74
2022/11/14 04:47:38;;;;;;;;;;;23.40;37.00;;;;;;484237;246;1282;-74
2022/11/14 04:49:39;;;;;;;;;;;23.50;36.90;;;;;;484178;246;1185;-74
2022/11/14 04:51:40;;;;;;;;;;;23.50;37.10;;;;;;484168;246;1244;-74
2022/11/14 04:53:42;;;;;;;;;;;23.70;37.20;;;;;;484156;246;1199;-74
2022/11/14 04:55:43;;;;;;;;;;;23.70;36.70;;;;;;484104;246;2168;-74
2022/11/14 04:57:44;;;;;;;;;;;23.70;37.20;;;;;;484175;246;1159;-74
2022/11/14 04:59:46;;;;;;;;;;;23.70;37.00;;;;;;484007;246;1263;-74
2022/11/14 05:01:47;;;;;;;;;;;23.80;36.70;;;;;;484179;246;1175;-74
2022/11/14 05:03:48;;;;;;;;;;;23.80;36.70;;;;;;484108;246;1184;-74
2022/11/14 05:05:50;;;;;;;;;;;23.90;37.10;;;;;;484231;246;1213;-74
2022/11/14 05:07:51;;;;;;;;;;;23.80;36.80;;;;;;484139;246;1225;-74
2022/11/14 05:09:52;;;;;;;;;;;23.80;36.60;;;;;;484193;246;1317;-74
2022/11/14 05:11:54;;;;;;;;;;;23.80;36.60;;;;;;484105;246;1379;-74
2022/11/14 05:13:55;;;;;;;;;;;23.70;36.70;;;;;;484169;246;1238;-74
2022/11/14 05:15:56;;;;;;;;;;;23.70;36.80;;;;;;484160;246;2208;-74
2022/11/14 05:17:58;;;;;;;;;;;23.60;37.00;;;;;;484167;246;1351;-74
2022/11/14 05:19:59;;;;;;;;;;;23.60;36.60;;;;;;484117;246;1211;-74
2022/11/14 05:22:00;;;;;;;;;;;23.50;36.90;;;;;;484106;246;1153;-74
2022/11/14 05:24:02;;;;;;;;;;;23.50;36.90;;;;;;484065;246;1231;-74
2022/11/14 05:26:03;;;;;;;;;;;23.40;37.00;;;;;;484108;246;1222;-74
2022/11/14 05:28:04;;;;;;;;;;;23.30;37.00;;;;;;484244;246;1204;-74
2022/11/14 05:30:06;;;;;;;;;;;23.30;36.90;;;;;;484110;246;1178;-74
2022/11/14 05:32:07;;;;;;;;;;;23.30;37.00;;;;;;484037;246;1214;-74
2022/11/14 05:34:08;;;;;;;;;;;23.30;37.00;;;;;;484199;246;2159;-73
2022/11/14 05:36:10;;;;;;;;;;;23.30;37.00;;;;;;484118;246;1158;-73
2022/11/14 05:38:11;;;;;;;;;;;23.40;37.40;;;;;;484034;246;1159;-73
2022/11/14 05:40:12;;;;;;;;;;;23.40;37.10;;;;;;484087;246;1357;-73
2022/11/14 05:42:14;;;;;;;;;;;23.40;37.80;;;;;;484103;246;1166;-73
2022/11/14 05:44:15;;;;;;;;;;;23.50;37.30;;;;;;484012;246;1184;-73
2022/11/14 05:46:16;;;;;;;;;;;23.40;37.70;;;;;;483944;246;1070;-73
2022/11/14 05:48:17;;;;;;;;;;;23.40;37.20;;;;;;484074;246;1198;-74
2022/11/14 05:50:19;;;;;;;;;;;23.50;37.10;;;;;;484124;246;1300;-74
2022/11/14 05:52:20;;;;;;;;;;;23.40;37.10;;;;;;484184;246;1175;-74
2022/11/14 05:54:21;;;;;;;;;;;23.50;37.00;;;;;;484164;246;2200;-74
2022/11/14 05:56:23;;;;;;;;;;;23.50;37.60;;;;;;484088;246;1128;-74
2022/11/14 05:58:24;;;;;;;;;;;23.50;37.20;;;;;;484095;246;1365;-74
2022/11/14 06:00:25;;;;;;;;;;;23.60;37.60;;;;;;484185;246;1201;-74
2022/11/14 06:02:27;;;;;;;;;;;23.70;37.50;;;;;;484116;246;1183;-74
2022/11/14 06:04:28;;;;;;;;;;;23.60;37.00;;;;;;484140;246;1208;-74
2022/11/14 06:06:29;;;;;;;;;;;23.70;36.90;;;;;;484148;246;1153;-74
2022/11/14 06:08:31;;;;;;;;;;;23.70;36.80;;;;;;484107;246;1208;-74
2022/11/14 06:10:32;;;;;;;;;;;23.70;37.00;;;;;;484038;246;1229;-74
2022/11/14 06:12:33;;;;;;;;;;;23.70;37.00;;;;;;484150;246;1218;-74
2022/11/14 06:14:35;;;;;;;;;;;23.70;36.70;;;;;;484013;246;2169;-74
2022/11/14 06:16:36;;;;;;;;;;;23.80;36.70;;;;;;484107;246;1164;-74
2022/11/14 06:18:37;;;;;;;;;;;23.80;36.60;;;;;;484045;246;1235;-74
2022/11/14 06:20:39;;;;;;;;;;;23.80;37.00;;;;;;484028;246;1213;-74
2022/11/14 06:22:40;;;;;;;;;;;23.80;36.90;;;;;;484081;246;1335;-74
2022/11/14 06:24:41;;;;;;;;;;;23.90;36.80;;;;;;484046;246;1168;-74
2022/11/14 06:26:43;;;;;;;;;;;23.90;36.50;;;;;;484042;246;1179;-74
2022/11/14 06:28:44;;;;;;;;;;;23.90;36.30;;;;;;484046;246;1199;-74
2022/11/14 06:30:45;;;;;;;;;;;23.90;36.70;;;;;;484078;246;1256;-74
2022/11/14 06:32:47;;;;;;;;;;;23.90;36.40;;;;;;483986;246;1171;-73
2022/11/14 06:34:48;;;;;;;;;;;23.90;36.90;;;;;;484011;246;2184;-73
2022/11/14 06:36:49;;;;;;;;;;;23.90;36.50;;;;;;484059;246;1081;-73
2022/11/14 06:38:50;;;;;;;;;;;23.80;36.50;;;;;;484084;246;1517;-73
2022/11/14 06:40:52;;;;;;;;;;;23.70;36.50;;;;;;483960;246;1153;-73
2022/11/14 06:42:53;;;;;;;;;;;23.60;36.70;;;;;;484025;246;1245;-73
2022/11/14 06:44:54;;;;;;;;;;;23.60;36.70;;;;;;484088;246;1306;-73
2022/11/14 06:46:56;;;;;;;;;;;23.60;36.90;;;;;;484091;246;1183;-73
2022/11/14 06:48:57;;;;;;;;;;;23.60;36.80;;;;;;484080;246;1232;-73
2022/11/14 06:50:58;;;;;;;;;;;23.60;37.30;;;;;;484043;246;1232;-73
2022/11/14 06:53:00;;;;;;;;;;;23.50;37.00;;;;;;484070;246;1357;-73
2022/11/14 06:55:01;;;;;;;;;;;23.40;37.40;;;;;;484135;246;2203;-73
2022/11/14 06:57:02;;;;;;;;;;;23.50;37.20;;;;;;484107;246;1327;-73
2022/11/14 06:59:04;;;;;;;;;;;23.60;37.30;;;;;;484029;246;1188;-73
2022/11/14 07:01:05;;;;;;;;;;;23.60;37.20;;;;;;484036;246;1316;-73
2022/11/14 07:03:06;;;;;;;;;;;23.70;37.10;;;;;;484043;246;1170;-74
2022/11/14 07:05:08;;;;;;;;;;;23.80;37.60;;;;;;483962;246;1138;-74
2022/11/14 07:07:09;;;;;;;;;;;23.80;36.80;;;;;;483773;246;1249;-74
2022/11/14 07:09:10;;;;;;;;;;;23.90;37.20;;;;;;483910;246;1187;-74
2022/11/14 07:11:21;;;;;;;;;;;23.90;36.60;;;;;;483774;246;1230;-74
2022/11/14 07:13:13;;;;;;;;;;;23.90;37.10;;;;;;483263;246;1509;-74
2022/11/14 07:15:15;;;;;;;;;;;24.00;36.80;;;;;;484011;246;2184;-74
2022/11/14 07:17:16;;;;;;;;;;;24.00;36.50;;;;;;483935;246;1164;-74
2022/11/14 07:19:17;;;;;;;;;;;24.00;36.30;;;;;;484041;246;1307;-74
2022/11/14 07:21:19;;;;;;;;;;;24.10;36.30;;;;;;483902;246;1265;-74
2022/11/14 07:23:20;;;;;;;;;;;24.10;36.60;;;;;;483836;246;1243;-74
2022/11/14 07:25:22;;;;;;;;;;;24.10;36.10;;;;;;483941;246;1247;-74
2022/11/14 07:27:23;;;;;;;;;;;24.10;36.20;;;;;;483897;246;1249;-74
2022/11/14 07:29:24;;;;;;;;;;;24.10;36.30;;;;;;483968;246;1284;-74
2022/11/14 07:31:26;;;;;;;;;;;24.10;36.10;;;;;;483796;246;1170;-74
2022/11/14 07:33:27;;;;;;;;;;;24.10;36.30;;;;;;483974;246;1218;-74
2022/11/14 07:35:28;;;;;;;;;;;24.10;36.30;;;;;;484014;246;2220;-74
2022/11/14 07:37:30;;;;;;;;;;;24.10;36.20;;;;;;484053;246;1408;-74
2022/11/14 07:39:31;;;;;;;;;;;24.00;36.10;;;;;;483863;246;1293;-73
2022/11/14 07:41:32;;;;;;;;;;;24.00;36.20;;;;;;483997;246;1199;-74
2022/11/14 07:43:34;;;;;;;;;;;23.90;36.20;;;;;;483961;246;1321;-74
2022/11/14 07:45:35;;;;;;;;;;;23.90;36.40;;;;;;483994;246;1315;-74
2022/11/14 07:47:36;;;;;;;;;;;23.80;36.30;;;;;;483768;246;1324;-74
2022/11/14 07:49:38;;;;;;;;;;;23.70;36.50;;;;;;483741;246;1193;-73
2022/11/14 07:51:39;;;;;;;;;;;23.70;36.40;;;;;;483809;246;1195;-73
2022/11/14 07:53:40;;;;;;;;;;;23.60;36.40;;;;;;483752;246;1204;-73
2022/11/14 07:55:42;;;;;;;;;;;23.40;37.20;;;;;;483907;246;2148;-73
2022/11/14 07:57:43;;;;;;;;;;;23.40;37.00;;;;;;483970;246;1252;-73
2022/11/14 07:59:44;;;;;;;;;;;23.40;37.40;;;;;;483925;246;1196;-73
2022/11/14 08:01:45;;;;;;;;;;;23.40;37.10;;;;;;483887;246;1286;-74
2022/11/14 08:03:47;;;;;;;;;;;23.50;37.20;;;;;;483817;246;1199;-74
2022/11/14 08:05:48;;;;;;;;;;;23.40;37.50;;;;;;483564;246;1320;-73
2022/11/14 08:07:49;;;;;;;;;;;23.40;37.40;;;;;;483699;246;1216;-74
2022/11/14 08:09:51;;;;;;;;;;;23.40;37.40;;;;;;483726;246;1190;-74
2022/11/14 08:11:52;;;;;;;;;;;23.50;37.50;;;;;;483831;246;1175;-74
2022/11/14 08:13:53;;;;;;;;;;;23.50;36.90;;;;;;483728;246;1159;-74
2022/11/14 08:15:55;;;;;;;;;;;23.60;36.60;;;;;;483894;243;2187;-74
2022/11/14 08:17:56;;;;;;;;;;;23.70;37.00;;;;;;483820;246;1157;-73
2022/11/14 08:19:58;;;;;;;;;;;23.70;37.10;;;;;;483767;246;1162;-73
2022/11/14 08:21:59;;;;;;;;;;;23.70;36.80;;;;;;483782;246;1201;-74
2022/11/14 08:24:00;;;;;;;;;;;23.70;36.50;;;;;;483943;246;1225;-74
2022/11/14 08:26:02;;;;;;;;;;;23.70;36.50;;;;;;483638;246;1252;-73
2022/11/14 08:28:03;;;;;;;;;;;23.80;36.50;;;;;;483650;246;1212;-74
2022/11/14 08:30:04;;;;;;;;;;;23.90;36.80;;;;;;483698;246;1178;-74
2022/11/14 08:32:06;;;;;;;;;;;23.90;36.40;;;;;;483624;246;1099;-74
2022/11/14 08:34:07;;;;;;;;;;;23.90;36.30;;;;;;483573;246;1184;-73
2022/11/14 08:36:08;;;;;;;;;;;24.00;36.70;;;;;;483722;246;2145;-73
2022/11/14 08:38:10;;;;;;;;;;;24.00;36.30;;;;;;483695;246;1330;-73
2022/11/14 08:40:11;;;;;;;;;;;24.00;36.20;;;;;;483644;246;1187;-73
2022/11/14 08:42:12;;;;;;;;;;;24.00;36.70;;;;;;483819;246;1141;-74
2022/11/14 08:44:13;;;;;;;;;;;23.90;36.20;;;;;;483723;246;1259;-74
2022/11/14 08:46:15;;;;;;;;;;;23.90;36.20;;;;;;483905;246;1150;-74
2022/11/14 08:48:16;;;;;;;;;;;23.90;36.60;;;;;;483821;246;1270;-74
2022/11/14 08:50:17;;;;;;;;;;;23.90;36.40;;;;;;483795;246;1187;-74
2022/11/14 08:52:19;;;;;;;;;;;23.90;36.20;;;;;;483954;242;1895;-74
2022/11/14 08:54:20;;;;;;;;;;;23.90;36.60;;;;;;483780;246;1132;-74
2022/11/14 08:56:21;;;;;;;;;;;23.90;36.20;;;;;;483805;246;2188;-74
2022/11/14 08:58:23;;;;;;;;;;;23.90;36.10;;;;;;483720;246;1203;-74
2022/11/14 09:00:24;;;;;;;;;;;23.80;36.20;;;;;;483834;246;1158;-73
2022/11/14 09:02:25;;;;;;;;;;;23.90;36.40;;;;;;483795;246;1136;-74
2022/11/14 09:04:27;;;;;;;;;;;23.90;36.40;;;;;;483774;246;1197;-74
2022/11/14 09:06:28;;;;;;;;;;;23.90;36.00;;;;;;483690;246;1158;-74
2022/11/14 09:08:29;;;;;;;;;;;23.90;36.10;;;;;;483866;246;1260;-74
2022/11/14 09:10:31;;;;;;;;;;;23.90;36.30;;;;;;483836;246;1281;-73
2022/11/14 09:12:32;;;;;;;;;;;24.00;35.90;;;;;;483791;246;1220;-73
2022/11/14 09:14:34;;;;;;;;;;;24.00;35.90;;;;;;483782;246;1206;-74
2022/11/14 09:16:35;;;;;;;;;;;24.00;36.20;;;;;;483788;246;2160;-74
2022/11/14 09:18:36;;;;;;;;;;;24.00;36.00;;;;;;483832;246;1295;-73
2022/11/14 09:20:38;;;;;;;;;;;24.00;35.90;;;;;;483759;246;1179;-73
2022/11/14 09:22:39;;;;;;;;;;;24.00;35.90;;;;;;483646;246;1340;-73
2022/11/14 09:24:40;;;;;;;;;;;24.10;36.20;;;;;;483733;246;1184;-73
2022/11/14 09:26:42;;;;;;;;;;;24.10;35.80;;;;;;483718;246;1195;-73
2022/11/14 09:28:43;;;;;;;;;;;24.10;35.80;;;;;;483801;246;1251;-73
2022/11/14 09:30:44;;;;;;;;;;;24.10;36.20;;;;;;483602;246;1194;-74
2022/11/14 09:32:45;;;;;;;;;;;24.10;36.00;;;;;;483689;246;1134;-74
2022/11/14 09:34:47;;;;;;;;;;;24.10;35.90;;;;;;483566;246;1173;-74
2022/11/14 09:36:48;;;;;;;;;;;24.20;36.00;;;;;;483646;246;2208;-73
2022/11/14 09:38:49;;;;;;;;;;;24.10;36.00;;;;;;483763;246;1163;-73
2022/11/14 09:40:51;;;;;;;;;;;24.10;35.80;;;;;;483647;246;1175;-74
2022/11/14 09:42:52;;;;;;;;;;;24.00;36.10;;;;;;483622;246;1200;-74
2022/11/14 09:44:54;;;;;;;;;;;24.00;35.90;;;;;;483782;242;1239;-74
2022/11/14 09:46:55;;;;;;;;;;;23.90;35.90;;;;;;483735;246;1181;-74
2022/11/14 09:48:56;;;;;;;;;;;23.90;36.10;;;;;;483783;246;1371;-73
2022/11/14 09:50:58;;;;;;;;;;;23.90;36.40;;;;;;483756;246;1183;-74
2022/11/14 09:52:59;;;;;;;;;;;23.80;36.30;;;;;;483821;246;1165;-74
2022/11/14 09:55:00;;;;;;;;;;;23.80;36.80;;;;;;483869;246;1412;-74
2022/11/14 09:57:02;;;;;;;;;;;23.80;36.80;;;;;;483712;246;2164;-74
2022/11/14 09:59:03;;;;;;;;;;;23.70;37.50;;;;;;483746;246;1157;-74
2022/11/14 10:01:04;;;;;;;;;;;23.70;38.00;;;;;;483657;246;1239;-74
2022/11/14 10:03:06;;;;;;;;;;;23.80;38.00;;;;;;483813;246;1250;-74
2022/11/14 10:05:07;;;;;;;;;;;23.70;38.00;;;;;;483674;242;1244;-74
2022/11/14 10:07:08;;;;;;;;;;;23.80;37.90;;;;;;483688;246;1223;-74
2022/11/14 10:09:10;;;;;;;;;;;23.70;37.90;;;;;;483737;246;1139;-74
2022/11/14 10:11:11;;;;;;;;;;;23.70;38.10;;;;;;483695;246;1198;-74
2022/11/14 10:13:12;;;;;;;;;;;23.60;37.80;;;;;;483711;246;1206;-73
2022/11/14 10:15:14;;;;;;;;;;;23.70;37.90;;;;;;483589;246;1189;-73
2022/11/14 10:17:15;;;;;;;;;;;23.60;37.70;;;;;;483618;246;2192;-73
2022/11/14 10:19:16;;;;;;;;;;;23.70;37.40;;;;;;483495;246;1215;-73
2022/11/14 10:21:18;;;;;;;;;;;23.70;37.40;;;;;;483606;246;1196;-74
2022/11/14 10:23:19;;;;;;;;;;;23.70;37.30;;;;;;483433;246;1182;-74
2022/11/14 10:25:20;;;;;;;;;;;23.70;37.10;;;;;;483671;246;1707;-73
2022/11/14 10:27:22;;;;;;;;;;;23.70;37.00;;;;;;483719;246;1203;-74
2022/11/14 10:29:23;;;;;;;;;;;23.70;37.00;;;;;;483591;246;1193;-74
2022/11/14 10:31:24;;;;;;;;;;;23.70;37.00;;;;;;483526;246;1170;-74
2022/11/14 10:33:26;;;;;;;;;;;23.70;36.90;;;;;;483557;246;1172;-74
2022/11/14 10:35:27;;;;;;;;;;;23.70;36.90;;;;;;483651;246;1204;-74
2022/11/14 10:37:29;;;;;;;;;;;23.60;36.80;;;;;;483674;246;2208;-74
2022/11/14 10:39:30;;;;;;;;;;;23.60;36.90;;;;;;483484;246;1182;-74
2022/11/14 10:41:31;;;;;;;;;;;23.60;36.90;;;;;;483656;246;1175;-74
2022/11/14 10:43:33;;;;;;;;;;;23.60;36.90;;;;;;483609;246;1191;-74
2022/11/14 10:45:45;;;;;;;;;;;23.50;36.90;;;;;;483489;246;1185;-73
2022/11/14 10:47:35;;;;;;;;;;;23.60;36.90;;;;;;481329;246;1343;-73
2022/11/14 10:49:37;;;;;;;;;;;23.70;36.80;;;;;;483511;246;1155;-73
2022/11/14 10:51:38;;;;;;;;;;;23.70;36.60;;;;;;483460;246;1298;-74
2022/11/14 10:53:39;;;;;;;;;;;23.80;36.60;;;;;;483616;246;1190;-74
2022/11/14 10:55:41;;;;;;;;;;;23.90;36.50;;;;;;483629;246;1181;-74
2022/11/14 10:57:42;;;;;;;;;;;23.90;36.50;;;;;;483575;246;2153;-73
2022/11/14 10:59:43;;;;;;;;;;;23.90;36.40;;;;;;483316;246;1145;-74
2022/11/14 11:01:45;;;;;;;;;;;23.90;36.40;;;;;;483497;246;1237;-73
2022/11/14 11:03:46;;;;;;;;;;;23.90;36.40;;;;;;483523;246;1202;-73
2022/11/14 11:05:47;;;;;;;;;;;23.90;36.40;;;;;;483602;246;1267;-74
2022/11/14 11:12:28;;;;;;;;;;;23.80;36.30;;;;;;483346;246;1220;-74
2022/11/14 11:14:29;;;;;;;;;;;23.80;36.40;;;;;;483474;246;1146;-74
2022/11/14 11:16:31;;;;;;;;;;;23.70;36.40;;;;;;483523;246;2199;-74
2022/11/14 11:18:32;;;;;;;;;;;23.70;36.40;;;;;;483565;246;1139;-74
2022/11/14 11:20:33;;;;;;;;;;;23.70;36.40;;;;;;483504;246;1236;-74
2022/11/14 11:22:35;;;;;;;;;;;23.70;36.50;;;;;;483482;246;1189;-72
2022/11/14 11:24:36;;;;;;;;;;;23.60;36.60;;;;;;483484;246;1238;-74
2022/11/14 11:26:37;;;;;;;;;;;23.40;36.90;;;;;;483358;246;1137;-74
2022/11/14 11:28:38;;;;;;;;;;;23.30;37.00;;;;;;483472;246;1202;-74
2022/11/14 11:30:40;;;;;;;;;;;23.30;37.10;;;;;;483630;246;1171;-74
2022/11/14 11:32:41;;;;;;;;;;;23.30;37.20;;;;;;483667;246;1275;-74
2022/11/14 11:34:42;;;;;;;;;;;23.30;37.10;;;;;;483702;246;1237;-74
2022/11/14 11:36:44;;;;;;;;;;;23.30;37.10;;;;;;483606;246;2188;-74
2022/11/14 11:38:45;;;;;;;;;;;23.30;37.10;;;;;;483787;246;1177;-73
2022/11/14 11:40:47;;;;;;;;;;;23.40;37.20;;;;;;483696;246;1194;-74
2022/11/14 11:42:48;;;;;;;;;;;23.30;37.10;;;;;;483762;246;1168;-74
2022/11/14 11:44:49;;;;;;;;;;;23.30;37.10;;;;;;483653;246;1254;-74
2022/11/14 11:46:51;;;;;;;;;;;23.50;37.20;;;;;;483539;246;1255;-74
2022/11/14 11:48:52;;;;;;;;;;;23.50;37.00;;;;;;483763;246;1350;-74
2022/11/14 11:50:53;;;;;;;;;;;23.60;37.00;;;;;;483492;246;1245;-74
2022/11/14 11:52:54;;;;;;;;;;;23.60;36.80;;;;;;483642;246;1104;-74
2022/11/14 11:54:56;;;;;;;;;;;23.70;36.80;;;;;;483834;246;1161;-74
2022/11/14 11:56:57;;;;;;;;;;;23.60;36.70;;;;;;483707;246;2162;-74
2022/11/14 11:58:58;;;;;;;;;;;23.60;36.70;;;;;;483561;246;1192;-74
2022/11/14 12:01:00;;;;;;;;;;;23.50;36.80;;;;;;483473;246;1173;-74